createdAt,value
2018-12-30T08:05:45.877Z,101534.81
2018-12-30T08:08:38.941Z,101542.30
2018-12-30T08:11:28.986Z,101543.57
2018-12-30T08:14:26.784Z,101550.91
2018-12-30T08:17:17.021Z,101550.33
2018-12-30T08:20:06.779Z,101557.28
2018-12-30T08:23:02.451Z,101561.98
2018-12-30T08:25:55.919Z,101553.62
2018-12-30T08:28:45.412Z,101558.33
2018-12-30T08:31:35.997Z,101566.38
2018-12-30T08:34:25.179Z,101561.91
2018-12-30T08:40:20.725Z,101571.92
2018-12-30T08:46:17.186Z,101584.17
2018-12-30T08:49:06.119Z,101586.81
2018-12-30T08:52:00.037Z,101582.42
2018-12-30T08:54:50.437Z,101595.38
2018-12-30T08:57:39.036Z,101600.00
2018-12-30T09:00:27.518Z,101605.91
2018-12-30T09:03:17.717Z,101617.95
2018-12-30T09:06:05.824Z,101614.61
2018-12-30T09:08:57.980Z,101614.86
2018-12-30T09:11:51.253Z,101613.97
2018-12-30T09:14:41.104Z,101629.11
2018-12-30T09:17:29.800Z,101635.80
2018-12-30T09:20:21.870Z,101636.34
2018-12-30T09:23:10.703Z,101637.35
2018-12-30T09:25:59.644Z,101644.22
2018-12-30T09:29:00.893Z,101642.17
2018-12-30T09:31:55.627Z,101643.35
2018-12-30T09:34:45.845Z,101643.05
2018-12-30T09:37:34.554Z,101657.00
2018-12-30T09:40:31.494Z,101652.86
2018-12-30T09:43:20.751Z,101653.38
2018-12-30T09:46:11.572Z,101651.73
2018-12-30T09:49:02.361Z,101648.81
2018-12-30T09:51:53.396Z,101651.09
2018-12-30T09:54:59.490Z,101665.66
2018-12-30T09:57:48.268Z,101664.63
2018-12-30T10:00:41.757Z,101670.84
2018-12-30T10:03:32.508Z,101665.14
2018-12-30T10:06:22.444Z,101669.92
2018-12-30T10:09:12.548Z,101667.31
2018-12-30T10:12:10.250Z,101664.64
2018-12-30T10:15:02.067Z,101666.73
2018-12-30T10:17:47.053Z,101674.81
2018-12-30T10:20:34.388Z,101684.25
2018-12-30T10:23:25.240Z,101672.48
2018-12-30T10:26:21.310Z,101690.28
2018-12-30T10:29:17.859Z,101692.86
2018-12-30T10:32:05.192Z,101694.66
2018-12-30T10:34:55.245Z,101686.69
2018-12-30T10:37:44.047Z,101684.46
2018-12-30T10:40:36.010Z,101695.05
2018-12-30T10:43:24.216Z,101694.22
2018-12-30T10:46:16.405Z,101699.30
2018-12-30T10:49:07.192Z,101697.77
2018-12-30T10:51:55.704Z,101697.57
2018-12-30T10:54:45.150Z,101705.52
2018-12-30T10:57:38.065Z,101702.39
2018-12-30T11:00:26.975Z,101702.73
2018-12-30T11:03:15.650Z,101705.21
2018-12-30T11:09:16.802Z,101696.17
2018-12-30T11:12:04.663Z,101702.35
2018-12-30T11:14:52.801Z,101703.27
2018-12-30T11:17:40.791Z,101706.02
2018-12-30T11:20:30.597Z,101699.88
2018-12-30T11:23:18.821Z,101696.16
2018-12-30T11:26:06.683Z,101691.87
2018-12-30T11:28:54.698Z,101696.51
2018-12-30T11:31:46.019Z,101689.14
2018-12-30T11:34:33.522Z,101680.95
2018-12-30T11:37:29.563Z,101675.22
2018-12-30T11:40:18.918Z,101680.95
2018-12-30T11:46:24.287Z,101681.88
2018-12-30T11:49:15.767Z,101682.15
2018-12-30T11:52:03.227Z,101682.34
2018-12-30T11:54:55.333Z,101686.17
2018-12-30T11:57:44.584Z,101679.41
2018-12-30T12:00:49.209Z,101682.68
2018-12-30T12:03:37.868Z,101686.23
2018-12-30T12:06:32.924Z,101682.27
2018-12-30T12:09:22.335Z,101687.67
2018-12-30T12:15:19.619Z,101683.88
2018-12-30T12:18:08.866Z,101688.78
2018-12-30T12:21:02.072Z,101697.22
2018-12-30T12:23:51.430Z,101695.76
2018-12-30T12:26:42.537Z,101707.88
2018-12-30T12:29:36.227Z,101705.61
2018-12-30T12:32:25.288Z,101707.97
2018-12-30T12:35:15.293Z,101707.63
2018-12-30T12:38:04.357Z,101716.08
2018-12-30T12:40:55.005Z,101710.91
2018-12-30T12:46:50.899Z,101708.43
2018-12-30T12:49:39.811Z,101710.67
2018-12-30T12:52:29.464Z,101707.63
2018-12-30T12:55:18.706Z,101712.86
2018-12-30T12:58:09.023Z,101721.22
2018-12-30T13:01:07.258Z,101713.20
2018-12-30T13:03:58.433Z,101718.52
2018-12-30T13:06:47.576Z,101718.90
2018-12-30T13:09:37.797Z,101708.95
2018-12-30T13:12:36.352Z,101711.80
2018-12-30T13:15:33.744Z,101718.03
2018-12-30T13:18:26.692Z,101719.73
2018-12-30T13:21:17.766Z,101720.88
2018-12-30T13:24:05.301Z,101729.27
2018-12-30T13:26:57.595Z,101726.54
2018-12-30T13:32:57.592Z,101733.51
2018-12-30T13:35:45.863Z,101733.38
2018-12-30T13:41:45.713Z,101728.50
2018-12-30T13:44:35.591Z,101735.89
2018-12-30T13:47:24.493Z,101748.14
2018-12-30T13:50:13.457Z,101757.44
2018-12-30T13:53:05.940Z,101760.64
2018-12-30T13:55:55.611Z,101757.64
2018-12-30T13:58:43.754Z,101768.15
2018-12-30T14:01:39.728Z,101765.05
2018-12-30T14:07:33.851Z,101762.91
2018-12-30T14:10:25.302Z,101767.56
2018-12-30T14:13:19.658Z,101765.80
2018-12-30T14:16:08.958Z,101777.64
2018-12-30T14:18:58.163Z,101768.83
2018-12-30T14:21:57.573Z,101778.57
2018-12-30T14:24:55.174Z,101781.80
2018-12-30T14:27:37.681Z,101780.06
2018-12-30T14:30:26.888Z,101774.43
2018-12-30T14:33:15.203Z,101782.37
2018-12-30T14:36:04.259Z,101781.19
2018-12-30T14:38:51.970Z,101782.52
2018-12-30T14:41:42.854Z,101783.97
2018-12-30T14:44:33.438Z,101785.70
2018-12-30T14:47:23.057Z,101795.36
2018-12-30T14:50:12.258Z,101794.49
2018-12-30T14:53:06.680Z,101790.33
2018-12-30T14:56:01.705Z,101790.41
2018-12-30T14:58:55.820Z,101787.87
2018-12-30T15:01:47.588Z,101786.94
2018-12-30T15:04:38.749Z,101779.00
2018-12-30T15:07:33.020Z,101776.80
2018-12-30T15:10:22.275Z,101764.01
2018-12-30T15:13:12.946Z,101782.98
2018-12-30T15:16:05.949Z,101784.27
2018-12-30T15:18:56.908Z,101785.59
2018-12-30T15:21:45.263Z,101785.59
2018-12-30T15:24:42.229Z,101786.53
2018-12-30T15:27:30.072Z,101793.97
2018-12-30T15:33:24.281Z,101790.91
2018-12-30T15:36:13.687Z,101783.95
2018-12-30T15:39:00.914Z,101777.85
2018-12-30T15:41:48.248Z,101783.16
2018-12-30T15:44:35.463Z,101789.78
2018-12-30T15:47:22.581Z,101793.31
2018-12-30T15:50:12.394Z,101807.80
2018-12-30T15:53:01.596Z,101798.59
2018-12-30T15:55:48.783Z,101782.76
2018-12-30T15:58:36.936Z,101797.25
2018-12-30T16:01:24.983Z,101819.63
2018-12-30T16:04:15.052Z,101823.16
2018-12-30T16:07:03.036Z,101826.24
2018-12-30T16:09:50.531Z,101811.77
2018-12-30T16:12:38.058Z,101824.09
2018-12-30T16:15:25.861Z,101830.67
2018-12-30T16:18:13.546Z,101829.02
2018-12-30T16:21:04.800Z,101834.33
2018-12-30T16:23:51.850Z,101844.69
2018-12-30T16:26:40.127Z,101851.80
2018-12-30T16:29:28.711Z,101856.30
2018-12-30T16:32:18.134Z,101853.59
2018-12-30T16:35:05.460Z,101858.23
2018-12-30T16:37:53.517Z,101863.33
2018-12-30T16:40:40.955Z,101860.86
2018-12-30T16:43:28.492Z,101860.30
2018-12-30T16:46:18.174Z,101854.53
2018-12-30T16:49:05.438Z,101852.60
2018-12-30T16:51:52.444Z,101861.03
2018-12-30T16:54:39.515Z,101858.11
2018-12-30T16:57:28.767Z,101866.47
2018-12-30T17:00:19.780Z,101863.43
2018-12-30T17:03:07.230Z,101864.79
2018-12-30T17:05:54.307Z,101877.58
2018-12-30T17:08:41.941Z,101874.16
2018-12-30T17:11:30.172Z,101882.85
2018-12-30T17:14:18.655Z,101885.11
2018-12-30T17:17:06.518Z,101878.58
2018-12-30T17:19:53.466Z,101880.33
2018-12-30T17:22:41.191Z,101872.38
2018-12-30T17:25:29.150Z,101883.16
2018-12-30T17:28:17.851Z,101891.30
2018-12-30T17:31:07.942Z,101895.91
2018-12-30T17:33:54.926Z,101892.94
2018-12-30T17:36:42.131Z,101898.16
2018-12-30T17:39:51.693Z,101894.81
2018-12-30T17:42:34.984Z,101898.44
2018-12-30T17:45:22.109Z,101903.36
2018-12-30T17:48:09.878Z,101911.27
2018-12-30T17:50:58.150Z,101917.45
2018-12-30T17:53:54.455Z,101906.48
2018-12-30T17:56:41.657Z,101907.36
2018-12-30T17:59:28.708Z,101918.83
2018-12-30T18:02:16.851Z,101918.27
2018-12-30T18:05:04.492Z,101918.27
2018-12-30T18:07:54.331Z,101918.33
2018-12-30T18:10:48.269Z,101930.91
2018-12-30T18:13:33.090Z,101939.44
2018-12-30T18:16:21.194Z,101936.39
2018-12-30T18:19:10.001Z,101928.05
2018-12-30T18:22:00.529Z,101935.56
2018-12-30T18:24:56.767Z,101939.53
2018-12-30T18:27:45.514Z,101951.91
2018-12-30T18:30:37.569Z,101936.94
2018-12-30T18:33:24.563Z,101946.58
2018-12-30T18:36:15.823Z,101951.44
2018-12-30T18:39:16.620Z,101950.21
2018-12-30T18:42:03.857Z,101950.73
2018-12-30T18:44:51.064Z,101949.98
2018-12-30T18:47:38.754Z,101946.06
2018-12-30T18:50:26.050Z,101949.94
2018-12-30T18:53:13.900Z,101949.69
2018-12-30T18:56:06.694Z,101952.08
2018-12-30T18:58:54.642Z,101946.08
2018-12-30T19:01:42.420Z,101955.33
2018-12-30T19:04:29.973Z,101953.23
2018-12-30T19:07:21.072Z,101971.69
2018-12-30T19:10:08.064Z,101967.75
2018-12-30T19:12:55.634Z,101970.92
2018-12-30T19:15:43.057Z,101974.84
2018-12-30T19:18:30.206Z,101968.19
2018-12-30T19:21:18.951Z,101980.52
2018-12-30T19:24:07.902Z,101970.85
2018-12-30T19:26:58.894Z,101972.17
2018-12-30T19:29:46.478Z,101972.64
2018-12-30T19:32:35.519Z,101974.38
2018-12-30T19:35:24.871Z,101980.92
2018-12-30T19:38:13.592Z,101971.25
2018-12-30T19:41:03.709Z,101975.20
2018-12-30T19:43:52.117Z,101977.86
2018-12-30T19:46:45.054Z,101976.94
2018-12-30T19:49:36.598Z,101972.25
2018-12-30T19:52:28.113Z,101971.65
2018-12-30T19:58:34.781Z,101970.91
2018-12-30T20:01:24.965Z,101973.13
2018-12-30T20:04:21.802Z,101970.07
2018-12-30T20:07:09.291Z,101974.51
2018-12-30T20:10:10.195Z,101983.39
2018-12-30T20:12:59.533Z,101975.06
2018-12-30T20:15:48.318Z,101973.77
2018-12-30T20:21:48.690Z,101978.39
2018-12-30T20:24:40.435Z,101980.53
2018-12-30T20:27:30.374Z,101988.49
2018-12-30T20:30:20.757Z,101988.92
2018-12-30T20:33:08.957Z,101982.77
2018-12-30T20:35:56.668Z,101982.25
2018-12-30T20:38:49.845Z,101983.42
2018-12-30T20:41:43.462Z,101984.43
2018-12-30T20:44:32.371Z,101985.44
2018-12-30T20:47:23.341Z,101979.47
2018-12-30T20:53:21.474Z,101973.48
2018-12-30T20:56:09.047Z,101988.05
2018-12-30T20:58:58.747Z,101981.06
2018-12-30T21:01:46.360Z,101988.95
2018-12-30T21:04:35.440Z,101990.67
2018-12-30T21:07:23.236Z,101986.37
2018-12-30T21:10:11.443Z,101975.59
2018-12-30T21:13:04.735Z,101976.20
2018-12-30T21:15:56.751Z,101965.79
2018-12-30T21:18:44.460Z,101965.86
2018-12-30T21:21:35.752Z,101967.15
2018-12-30T21:24:30.079Z,101959.45
2018-12-30T21:27:22.544Z,101966.80
2018-12-30T21:36:32.521Z,101966.22
2018-12-30T21:39:25.646Z,101968.50
2018-12-30T21:42:15.399Z,101964.64
2018-12-30T21:45:13.874Z,101962.48
2018-12-30T21:48:01.544Z,101973.06
2018-12-30T21:53:58.688Z,101977.05
2018-12-30T21:56:54.803Z,101984.55
2018-12-30T21:59:42.326Z,101993.19
2018-12-30T22:02:41.150Z,102004.56
2018-12-30T22:05:32.352Z,102004.98
2018-12-30T22:08:19.942Z,102007.16
2018-12-30T22:11:07.792Z,102011.98
2018-12-30T22:13:57.149Z,102008.88
2018-12-30T22:19:57.632Z,102012.36
2018-12-30T22:22:46.735Z,102021.98
2018-12-30T22:25:36.635Z,102021.97
2018-12-30T22:28:24.562Z,102020.66
2018-12-30T22:31:14.234Z,102017.16
2018-12-30T22:34:18.763Z,102005.27
2018-12-30T22:37:06.957Z,102004.98
2018-12-30T22:39:56.637Z,102015.16
2018-12-30T22:42:44.046Z,102013.45
2018-12-30T22:45:32.132Z,102012.58
2018-12-30T22:48:19.872Z,102014.39
2018-12-30T22:51:08.687Z,102025.53
2018-12-30T22:53:59.131Z,102022.11
2018-12-30T22:56:47.786Z,102015.12
2018-12-30T22:59:36.470Z,102015.59
2018-12-30T23:02:26.014Z,102015.57
2018-12-30T23:05:13.184Z,102019.30
2018-12-30T23:08:00.466Z,102021.31
2018-12-30T23:10:49.240Z,102029.25
2018-12-30T23:13:37.851Z,102028.91
2018-12-30T23:16:25.284Z,102025.66
2018-12-30T23:19:13.385Z,102031.00
2018-12-30T23:22:10.376Z,102023.86
2018-12-30T23:24:57.709Z,102022.86
2018-12-30T23:27:45.341Z,102030.49
2018-12-30T23:30:33.316Z,102033.59
2018-12-30T23:33:21.769Z,102027.55
2018-12-30T23:36:08.095Z,102032.91
2018-12-30T23:38:58.714Z,102029.52
2018-12-30T23:41:56.481Z,102024.70
2018-12-30T23:46:14.468Z,102036.79
2018-12-30T23:49:04.278Z,102031.31
2018-12-30T23:52:00.896Z,102011.48
2018-12-30T23:54:43.953Z,102014.47
2018-12-30T23:57:36.091Z,102008.45
